Time;durP1;ratioP1;P1;durP2;ratioP2;P2;SDS_P1;SDS_P2;PMS_P1;PMS_P2;Temp;Humidity;BMP_temperature;BMP_pressure;BME280_temperature;BME280_humidity;BME280_pressure;Samples;Min_cycle;Max_cycle;Signal;HPM_P1;HPM_P2
2024/02/13 00:00:10;;;;;;;19.35;4.70;;;5.10;99.90;;;;;;5076473;28;20164;-80
2024/02/13 00:02:37;;;;;;;18.42;4.82;;;5.00;99.90;;;;;;5076523;28;20169;-81
2024/02/13 00:05:08;;;;;;;20.42;4.75;;;4.80;99.90;;;;;;5058684;28;20191;-80
2024/02/13 00:07:38;;;;;;;21.02;5.50;;;4.70;99.90;;;;;;5058014;28;20275;-80
2024/02/13 00:10:11;;;;;;;18.30;5.30;;;4.70;99.90;;;;;;5076546;28;20153;-81
2024/02/13 00:12:38;;;;;;;18.30;5.80;;;4.60;99.90;;;;;;5057897;28;20157;-81
2024/02/13 00:15:04;;;;;;;22.05;6.10;;;4.50;99.90;;;;;;5076041;28;20226;-80
2024/02/13 00:17:30;;;;;;;27.08;6.60;;;4.40;99.90;;;;;;5075361;28;20616;-80
2024/02/13 00:19:56;;;;;;;26.60;6.17;;;4.50;99.90;;;;;;5075214;28;20199;-80
2024/02/13 00:22:23;;;;;;;21.15;5.72;;;4.40;99.90;;;;;;5076115;28;20230;-80
2024/02/13 00:24:50;;;;;;;24.48;6.22;;;4.40;99.90;;;;;;5075674;28;20223;-81
2024/02/13 00:27:19;;;;;;;21.05;5.95;;;4.30;99.90;;;;;;5057877;28;20669;-81
2024/02/13 00:29:45;;;;;;;20.88;5.53;;;4.30;99.90;;;;;;5078461;28;20176;-80
2024/02/13 00:32:14;;;;;;;21.23;5.18;;;4.20;99.90;;;;;;5062442;28;20566;-81
2024/02/13 00:34:40;;;;;;;19.40;5.63;;;4.10;99.90;;;;;;5064438;28;20264;-81
2024/02/13 00:37:06;;;;;;;19.77;5.43;;;4.10;99.90;;;;;;5085361;28;20257;-81
2024/02/13 00:39:31;;;;;;;19.08;5.82;;;4.10;99.90;;;;;;5061381;28;20449;-81
2024/02/13 00:41:57;;;;;;;19.80;5.47;;;4.00;99.90;;;;;;5079975;28;20181;-82
2024/02/13 00:44:26;;;;;;;21.93;5.80;;;4.10;99.90;;;;;;5063766;28;20229;-81
2024/02/13 00:46:53;;;;;;;19.67;5.05;;;4.10;99.90;;;;;;5082832;28;20407;-81
2024/02/13 00:49:21;;;;;;;25.38;6.95;;;4.00;99.90;;;;;;5071887;28;20172;-82
2024/02/13 00:51:47;;;;;;;18.90;5.50;;;4.00;99.90;;;;;;5070666;28;20180;-81
2024/02/13 00:54:16;;;;;;;23.60;5.60;;;4.00;99.90;;;;;;5081142;28;20165;-82
2024/02/13 00:56:43;;;;;;;25.90;4.93;;;3.80;99.90;;;;;;5084729;28;20168;-82
2024/02/13 00:59:09;;;;;;;20.83;5.70;;;3.80;99.90;;;;;;5085594;28;20179;-82
2024/02/13 01:01:35;;;;;;;22.55;5.90;;;3.80;99.90;;;;;;5085816;28;20188;-82
2024/02/13 01:04:06;;;;;;;22.40;5.22;;;3.80;99.90;;;;;;5050841;28;20199;-81
2024/02/13 01:06:33;;;;;;;24.80;6.28;;;3.80;99.90;;;;;;5086942;28;20200;-82
2024/02/13 01:09:00;;;;;;;23.58;6.30;;;3.70;99.90;;;;;;5088052;28;20184;-81
2024/02/13 01:11:26;;;;;;;21.83;6.03;;;3.70;99.90;;;;;;5086520;28;20167;-82
2024/02/13 01:13:52;;;;;;;27.47;5.77;;;3.80;99.90;;;;;;5085907;28;20165;-82
2024/02/13 01:16:19;;;;;;;22.38;6.07;;;3.80;99.90;;;;;;5086624;28;20399;-83
2024/02/13 01:18:44;;;;;;;20.65;5.82;;;3.80;99.90;;;;;;5088328;28;20160;-81
2024/02/13 01:21:14;;;;;;;17.80;4.80;;;3.80;99.90;;;;;;5086768;28;20184;-82
2024/02/13 01:23:40;;;;;;;22.20;6.00;;;3.80;99.90;;;;;;5087023;28;20157;-82
2024/02/13 01:26:05;;;;;;;18.70;4.88;;;3.80;99.90;;;;;;5085785;28;20650;-81
2024/02/13 01:28:34;;;;;;;22.10;6.30;;;3.70;99.90;;;;;;5085738;28;20248;-82
2024/02/13 01:31:02;;;;;;;22.75;6.32;;;3.80;99.90;;;;;;5084095;28;20172;-81
2024/02/13 01:33:30;;;;;;;21.95;5.88;;;3.80;99.90;;;;;;5066624;28;20663;-81
2024/02/13 01:35:56;;;;;;;21.60;6.43;;;3.80;99.90;;;;;;5065414;28;20172;-81
2024/02/13 01:38:22;;;;;;;20.90;5.63;;;3.80;99.90;;;;;;5085442;28;20234;-82
2024/02/13 01:40:49;;;;;;;19.70;5.38;;;3.70;99.90;;;;;;5085446;28;20447;-82
2024/02/13 01:43:15;;;;;;;21.10;5.25;;;3.70;99.90;;;;;;5086912;28;20165;-82
2024/02/13 01:45:48;;;;;;;19.92;5.10;;;3.70;99.90;;;;;;5085278;28;20163;-81
2024/02/13 01:48:17;;;;;;;19.80;4.70;;;3.80;99.90;;;;;;5083674;28;20179;-81
2024/02/13 01:50:47;;;;;;;23.42;5.35;;;3.70;99.90;;;;;;5069824;28;20172;-81
2024/02/13 01:53:14;;;;;;;22.88;5.07;;;3.70;99.90;;;;;;5086775;28;20153;-81
2024/02/13 01:55:41;;;;;;;19.20;5.45;;;3.60;99.90;;;;;;5069287;28;20173;-81
2024/02/13 01:58:06;;;;;;;21.30;5.28;;;3.60;99.90;;;;;;5086791;28;20207;-82
2024/02/13 02:00:32;;;;;;;23.57;4.93;;;3.50;99.90;;;;;;5068368;28;20228;-82
2024/02/13 02:03:01;;;;;;;20.97;5.27;;;3.50;99.90;;;;;;5085843;28;20172;-82
2024/02/13 02:05:27;;;;;;;19.90;5.25;;;3.50;99.90;;;;;;5069773;28;20417;-82
2024/02/13 02:07:56;;;;;;;18.00;4.53;;;3.40;99.90;;;;;;5087060;28;20204;-82
2024/02/13 02:10:23;;;;;;;18.60;4.60;;;3.40;99.90;;;;;;5087772;28;20685;-82
2024/02/13 02:12:49;;;;;;;23.17;5.50;;;3.40;99.90;;;;;;5086858;28;20161;-82
2024/02/13 02:15:19;;;;;;;18.13;4.05;;;3.30;99.90;;;;;;5087392;28;20235;-82
2024/02/13 02:17:52;;;;;;;21.40;5.22;;;3.30;99.90;;;;;;5070181;28;20195;-82
2024/02/13 02:20:22;;;;;;;20.17;5.85;;;3.30;99.90;;;;;;5069514;28;20232;-83
2024/02/13 02:22:49;;;;;;;22.25;6.18;;;3.20;99.90;;;;;;5086344;28;20164;-82
2024/02/13 02:25:18;;;;;;;29.70;6.15;;;3.20;99.90;;;;;;5085321;28;20188;-82
2024/02/13 02:27:45;;;;;;;22.80;4.53;;;3.20;99.90;;;;;;5069520;28;20196;-82
2024/02/13 02:30:11;;;;;;;17.08;5.07;;;3.30;99.90;;;;;;5086430;28;20195;-81
2024/02/13 02:32:37;;;;;;;17.43;5.10;;;3.20;99.90;;;;;;5085442;28;20185;-82
2024/02/13 02:35:03;;;;;;;21.83;5.07;;;3.20;99.90;;;;;;5067281;28;20484;-82
2024/02/13 02:37:28;;;;;;;19.42;5.28;;;3.20;99.90;;;;;;5068490;28;20253;-82
2024/02/13 02:39:54;;;;;;;21.47;5.40;;;3.20;99.90;;;;;;5085176;28;20181;-81
2024/02/13 02:42:21;;;;;;;17.67;4.30;;;3.20;99.90;;;;;;5087299;28;20230;-82
2024/02/13 02:44:47;;;;;;;21.77;4.97;;;3.20;99.90;;;;;;5089470;28;20160;-82
2024/02/13 02:47:13;;;;;;;19.43;4.67;;;3.20;99.90;;;;;;5089863;28;20262;-82
2024/02/13 02:49:39;;;;;;;22.13;5.97;;;3.10;99.90;;;;;;5090511;28;20207;-82
2024/02/13 02:52:07;;;;;;;24.98;4.68;;;3.20;99.90;;;;;;5090490;28;20446;-82
2024/02/13 02:54:40;;;;;;;18.65;5.20;;;3.20;99.90;;;;;;5070358;28;20160;-82
2024/02/13 02:57:11;;;;;;;20.67;6.55;;;3.20;99.90;;;;;;5087822;28;20252;-81
2024/02/13 02:59:36;;;;;;;20.92;6.13;;;3.20;99.90;;;;;;5090626;28;20156;-82
2024/02/13 03:02:02;;;;;;;20.03;5.70;;;3.20;99.90;;;;;;5089271;28;20169;-80
2024/02/13 03:04:28;;;;;;;21.97;5.30;;;3.20;99.90;;;;;;5080937;28;20212;-80
2024/02/13 03:06:54;;;;;;;20.50;5.50;;;3.20;99.90;;;;;;5063373;28;20168;-80
2024/02/13 03:09:20;;;;;;;24.20;6.07;;;3.20;99.90;;;;;;5082301;28;20406;-80
2024/02/13 03:11:47;;;;;;;26.50;5.47;;;3.20;99.90;;;;;;5079695;28;20438;-80
2024/02/13 03:14:13;;;;;;;20.35;5.65;;;3.10;99.90;;;;;;5080326;28;20430;-80
2024/02/13 03:16:40;;;;;;;19.57;5.50;;;3.10;99.90;;;;;;5081085;28;20172;-81
2024/02/13 03:19:06;;;;;;;22.05;5.45;;;3.10;99.90;;;;;;5067284;28;20434;-80
2024/02/13 03:21:32;;;;;;;18.95;5.03;;;3.00;99.90;;;;;;5068630;28;20169;-80
2024/02/13 03:23:58;;;;;;;22.33;6.57;;;3.00;99.90;;;;;;5083788;28;20255;-82
2024/02/13 03:26:24;;;;;;;20.57;5.70;;;3.00;99.90;;;;;;5083537;28;20290;-82
2024/02/13 03:28:50;;;;;;;21.40;6.80;;;2.90;99.90;;;;;;5082942;28;20445;-80
2024/02/13 03:31:16;;;;;;;24.55;5.97;;;2.90;99.90;;;;;;5067301;28;20203;-81
2024/02/13 03:33:42;;;;;;;18.77;5.80;;;2.90;99.90;;;;;;5083952;28;20169;-81
2024/02/13 03:36:08;;;;;;;19.80;6.03;;;2.90;99.90;;;;;;5085393;28;20192;-81
2024/02/13 03:38:34;;;;;;;25.30;6.13;;;2.90;99.90;;;;;;5085716;28;20519;-82
2024/02/13 03:41:00;;;;;;;22.27;5.70;;;2.90;99.90;;;;;;5084373;28;20169;-82
2024/02/13 03:43:26;;;;;;;20.63;5.90;;;3.00;99.90;;;;;;5082950;28;20169;-81
2024/02/13 03:45:53;;;;;;;21.88;6.50;;;3.00;99.90;;;;;;5084146;28;20192;-81
2024/02/13 03:48:19;;;;;;;18.25;5.32;;;3.00;99.90;;;;;;5065818;28;20603;-80
2024/02/13 03:50:44;;;;;;;20.50;5.87;;;3.00;99.90;;;;;;5085509;28;20223;-80
2024/02/13 03:53:13;;;;;;;22.00;7.10;;;3.10;99.90;;;;;;5084397;28;20156;-81
2024/02/13 03:55:39;;;;;;;22.10;6.32;;;3.10;99.90;;;;;;5083335;28;20160;-82
2024/02/13 03:58:05;;;;;;;25.95;7.95;;;3.10;99.90;;;;;;5081923;28;20181;-81
2024/02/13 04:00:32;;;;;;;19.53;5.80;;;3.20;99.90;;;;;;5083898;28;20157;-81
2024/02/13 04:02:58;;;;;;;21.67;5.95;;;3.20;99.90;;;;;;5070212;28;20615;-82
2024/02/13 04:05:24;;;;;;;19.30;5.80;;;3.20;99.90;;;;;;5082138;28;20172;-80
2024/02/13 04:07:50;;;;;;;19.63;6.35;;;3.30;99.90;;;;;;5082584;28;20419;-82
2024/02/13 04:10:16;;;;;;;22.23;7.22;;;3.30;99.90;;;;;;5068370;28;20165;-81
2024/02/13 04:12:43;;;;;;;24.00;7.00;;;3.40;99.90;;;;;;5067803;28;20227;-80
2024/02/13 04:15:09;;;;;;;19.10;6.05;;;3.40;99.90;;;;;;5085770;28;20171;-81
2024/02/13 04:17:35;;;;;;;24.63;6.60;;;3.40;99.90;;;;;;5085164;28;20184;-80
2024/02/13 04:20:03;;;;;;;26.20;6.97;;;3.50;99.90;;;;;;5084972;28;20172;-82
2024/02/13 04:22:28;;;;;;;22.48;5.93;;;3.50;99.90;;;;;;5085553;28;20402;-81
2024/02/13 04:24:54;;;;;;;21.73;5.90;;;3.50;99.90;;;;;;5086703;28;20530;-82
2024/02/13 04:27:20;;;;;;;19.80;6.10;;;3.60;99.90;;;;;;5087058;28;20188;-82
2024/02/13 04:29:47;;;;;;;23.15;6.28;;;3.60;99.90;;;;;;5085931;28;20189;-82
2024/02/13 04:32:13;;;;;;;18.92;5.18;;;3.60;99.90;;;;;;5086409;28;20184;-81
2024/02/13 04:34:39;;;;;;;23.20;6.43;;;3.70;99.90;;;;;;5086485;28;20188;-81
2024/02/13 04:37:05;;;;;;;19.73;5.50;;;3.70;99.90;;;;;;5086261;28;20521;-81
2024/02/13 04:39:30;;;;;;;19.70;5.03;;;3.70;99.90;;;;;;5086036;28;20470;-82
2024/02/13 04:41:56;;;;;;;24.00;5.50;;;3.70;99.90;;;;;;5085284;28;20172;-82
2024/02/13 04:44:21;;;;;;;17.40;4.63;;;3.70;99.90;;;;;;5085086;28;20218;-81
2024/02/13 04:46:47;;;;;;;17.60;5.07;;;3.70;99.90;;;;;;5085098;28;20504;-81
2024/02/13 04:49:13;;;;;;;18.63;4.57;;;3.70;99.90;;;;;;5086102;28;20160;-81
2024/02/13 04:51:38;;;;;;;21.47;5.20;;;3.70;99.90;;;;;;5085509;28;20180;-81
2024/02/13 04:54:05;;;;;;;21.40;4.97;;;3.70;99.90;;;;;;5084802;28;20161;-81
2024/02/13 04:56:31;;;;;;;18.17;4.28;;;3.80;99.90;;;;;;5084150;28;20171;-82
2024/02/13 04:58:56;;;;;;;17.05;3.92;;;3.80;99.90;;;;;;5068344;28;20244;-81
2024/02/13 05:01:25;;;;;;;17.30;3.60;;;3.90;99.90;;;;;;5066207;28;20168;-80
2024/02/13 05:09:05;;;;;;;16.08;2.95;;;3.90;99.90;;;;;;5085335;28;20228;-82
2024/02/13 05:11:31;;;;;;;15.77;2.97;;;3.90;99.90;;;;;;5083266;28;20180;-82
2024/02/13 05:14:02;;;;;;;20.70;3.33;;;3.90;99.90;;;;;;5084716;28;20168;-81
2024/02/13 05:16:31;;;;;;;19.33;3.20;;;3.90;99.90;;;;;;5068728;28;20386;-81
2024/02/13 05:18:57;;;;;;;15.95;3.40;;;4.00;99.90;;;;;;5084972;28;20235;-82
2024/02/13 05:21:23;;;;;;;15.50;2.70;;;4.00;99.90;;;;;;5085030;28;20168;-80
2024/02/13 05:23:49;;;;;;;15.05;2.83;;;3.90;99.90;;;;;;5083698;28;20168;-81
2024/02/13 05:26:17;;;;;;;16.33;3.80;;;3.90;99.90;;;;;;5082495;28;20192;-80
2024/02/13 05:28:46;;;;;;;17.15;3.58;;;3.90;99.90;;;;;;5082852;28;20195;-80
2024/02/13 05:31:12;;;;;;;16.45;2.95;;;4.00;99.90;;;;;;5082928;28;20185;-80
2024/02/13 05:33:39;;;;;;;15.73;2.73;;;4.00;99.90;;;;;;5083415;28;20164;-81
2024/02/13 05:36:05;;;;;;;15.98;2.58;;;4.00;99.90;;;;;;5079254;28;20892;-80
2024/02/13 05:38:39;;;;;;;16.83;2.55;;;4.00;99.90;;;;;;5079442;28;20298;-80
2024/02/13 05:41:05;;;;;;;15.52;3.50;;;4.10;99.90;;;;;;5060398;28;20156;-81
2024/02/13 05:43:31;;;;;;;16.83;3.10;;;4.00;99.90;;;;;;5077474;28;20186;-80
2024/02/13 05:45:57;;;;;;;16.20;3.00;;;4.00;99.90;;;;;;5076907;28;20172;-81
2024/02/13 05:48:24;;;;;;;17.67;3.67;;;4.00;99.90;;;;;;5078479;28;20517;-80
2024/02/13 05:50:54;;;;;;;17.17;3.10;;;4.00;99.90;;;;;;5076014;28;20275;-80
2024/02/13 05:53:20;;;;;;;16.08;3.20;;;4.00;99.90;;;;;;5075290;28;20164;-80
2024/02/13 05:55:46;;;;;;;15.50;2.80;;;4.00;99.90;;;;;;5057280;28;20180;-80
2024/02/13 05:58:12;;;;;;;17.63;2.60;;;4.00;99.90;;;;;;5074553;28;20534;-80
2024/02/13 06:00:37;;;;;;;16.17;3.00;;;4.00;99.90;;;;;;5056305;28;20600;-80
2024/02/13 06:03:05;;;;;;;16.33;3.00;;;4.00;99.90;;;;;;5056920;28;20165;-80
2024/02/13 06:05:31;;;;;;;17.48;2.45;;;4.00;99.90;;;;;;5074605;28;20688;-80
2024/02/13 06:08:07;;;;;;;15.68;2.45;;;4.00;99.90;;;;;;5075161;28;20215;-80
2024/02/13 06:10:35;;;;;;;16.13;2.85;;;4.00;99.90;;;;;;5075610;28;20153;-80
2024/02/13 06:13:06;;;;;;;16.77;2.83;;;3.90;99.90;;;;;;5074796;28;20165;-80
2024/02/13 06:15:33;;;;;;;20.55;3.40;;;4.00;99.90;;;;;;5074951;28;20137;-80
2024/02/13 06:18:04;;;;;;;25.40;3.58;;;3.90;99.90;;;;;;5077464;28;20184;-80
2024/02/13 06:20:30;;;;;;;17.90;3.47;;;3.90;99.90;;;;;;5061431;28;20299;-80
2024/02/13 06:22:55;;;;;;;18.00;3.27;;;3.90;99.90;;;;;;5078278;28;20244;-80
2024/02/13 06:25:21;;;;;;;17.70;3.57;;;3.90;99.90;;;;;;5078314;28;20164;-80
2024/02/13 06:27:46;;;;;;;18.07;3.67;;;3.90;99.90;;;;;;5077848;28;20184;-80
2024/02/13 06:30:13;;;;;;;19.50;3.97;;;3.90;99.90;;;;;;5078183;28;20172;-80
2024/02/13 06:32:38;;;;;;;20.45;3.70;;;3.90;99.90;;;;;;5078393;28;20326;-79
2024/02/13 06:35:04;;;;;;;19.87;4.30;;;3.80;99.90;;;;;;5060425;28;20188;-80
2024/02/13 06:37:30;;;;;;;17.40;3.63;;;3.90;99.90;;;;;;5078406;28;20184;-80
2024/02/13 06:39:56;;;;;;;16.83;3.50;;;3.90;99.90;;;;;;5061079;28;20414;-80
2024/02/13 06:42:21;;;;;;;24.43;3.83;;;3.80;99.90;;;;;;5078981;28;20406;-80
2024/02/13 06:44:47;;;;;;;18.70;3.10;;;3.80;99.90;;;;;;5078468;28;20586;-80
2024/02/13 06:47:13;;;;;;;18.80;3.23;;;3.90;99.90;;;;;;5078442;28;20661;-80
2024/02/13 06:49:39;;;;;;;15.33;2.10;;;3.90;99.90;;;;;;5078375;28;20395;-80
2024/02/13 06:52:05;;;;;;;16.20;2.50;;;3.90;99.90;;;;;;5060624;28;20450;-81
2024/02/13 06:54:34;;;;;;;15.95;2.60;;;3.90;99.90;;;;;;5078559;28;20749;-80
2024/02/13 06:57:00;;;;;;;15.88;3.20;;;3.90;99.90;;;;;;5078559;28;20176;-80
2024/02/13 06:59:29;;;;;;;18.10;3.20;;;3.90;99.90;;;;;;5061604;28;20641;-80
2024/02/13 07:01:56;;;;;;;13.75;1.75;;;3.90;99.90;;;;;;5078979;28;20402;-80
2024/02/13 07:04:21;;;;;;;16.35;2.80;;;3.90;99.90;;;;;;5079390;28;20164;-80
2024/02/13 07:06:47;;;;;;;14.87;2.33;;;4.00;99.90;;;;;;5061009;28;20691;-80
2024/02/13 07:09:13;;;;;;;15.00;2.37;;;3.90;99.90;;;;;;5081483;28;20192;-81
2024/02/13 07:11:39;;;;;;;15.90;2.80;;;4.00;99.90;;;;;;5083054;28;20188;-81
2024/02/13 07:14:04;;;;;;;15.90;2.80;;;4.10;99.90;;;;;;5082770;28;20460;-80
2024/02/13 07:16:30;;;;;;;15.73;2.33;;;4.00;99.90;;;;;;5083165;28;20182;-81
2024/02/13 07:18:56;;;;;;;15.60;2.27;;;4.10;99.90;;;;;;5085519;28;20265;-80
2024/02/13 07:21:21;;;;;;;18.70;2.27;;;4.10;99.90;;;;;;5064106;28;20168;-80
2024/02/13 07:23:48;;;;;;;18.93;2.87;;;4.10;99.90;;;;;;5084105;28;20234;-80
2024/02/13 07:26:14;;;;;;;15.45;2.42;;;4.20;99.90;;;;;;5084495;28;20141;-80
2024/02/13 07:28:41;;;;;;;14.32;2.20;;;4.20;99.90;;;;;;5086271;28;20177;-81
2024/02/13 07:31:10;;;;;;;15.43;2.10;;;4.20;99.90;;;;;;5087865;28;20180;-80
2024/02/13 07:33:36;;;;;;;15.25;1.98;;;4.30;99.90;;;;;;5068857;28;20175;-81
2024/02/13 07:36:05;;;;;;;15.80;2.70;;;4.30;99.90;;;;;;5069287;28;20626;-81
2024/02/13 07:38:32;;;;;;;17.15;2.20;;;4.30;99.90;;;;;;5087134;28;20434;-80
2024/02/13 07:41:00;;;;;;;21.77;3.30;;;4.30;99.90;;;;;;5087259;28;20255;-82
2024/02/13 07:43:27;;;;;;;15.00;2.17;;;4.30;99.90;;;;;;5070455;28;20175;-81
2024/02/13 07:45:52;;;;;;;16.13;2.45;;;4.40;99.90;;;;;;5087652;28;20641;-81
2024/02/13 07:48:18;;;;;;;16.03;2.63;;;4.40;99.90;;;;;;5087657;28;20199;-80
2024/02/13 07:50:44;;;;;;;16.67;2.47;;;4.50;99.90;;;;;;5088084;28;20195;-81
2024/02/13 07:53:10;;;;;;;15.13;2.60;;;4.50;99.90;;;;;;5088506;28;20160;-81
2024/02/13 07:55:36;;;;;;;15.35;2.65;;;4.60;99.90;;;;;;5086363;28;20222;-81
2024/02/13 07:58:05;;;;;;;15.63;2.30;;;4.60;99.90;;;;;;5085642;28;20184;-80
2024/02/13 08:00:33;;;;;;;19.83;3.08;;;4.70;99.90;;;;;;5080784;28;20228;-81
2024/02/13 08:02:59;;;;;;;14.60;2.13;;;4.70;99.90;;;;;;5067803;28;20168;-80
2024/02/13 08:05:25;;;;;;;14.93;2.30;;;4.80;99.90;;;;;;5086023;28;20224;-81
2024/02/13 08:07:51;;;;;;;18.00;2.30;;;4.80;99.90;;;;;;5085957;28;20271;-81
2024/02/13 08:10:17;;;;;;;14.53;2.20;;;4.90;99.90;;;;;;5081835;28;20904;-81
2024/02/13 08:12:43;;;;;;;14.60;2.23;;;4.90;99.90;;;;;;5062932;28;20283;-81
2024/02/13 08:15:09;;;;;;;14.57;2.57;;;4.90;99.90;;;;;;5060689;28;20172;-80
2024/02/13 08:17:35;;;;;;;15.02;2.70;;;5.00;99.90;;;;;;5081224;28;20422;-81
2024/02/13 08:20:03;;;;;;;15.27;2.60;;;5.10;99.90;;;;;;5063421;28;20168;-81
2024/02/13 08:22:29;;;;;;;15.05;2.38;;;5.10;99.90;;;;;;5082014;28;20502;-80
2024/02/13 08:24:55;;;;;;;15.93;2.50;;;5.20;99.90;;;;;;5080911;28;20226;-80
2024/02/13 08:27:21;;;;;;;14.73;2.40;;;5.30;99.90;;;;;;5077928;28;20419;-80
2024/02/13 08:29:47;;;;;;;17.20;3.20;;;5.30;99.90;;;;;;5077510;28;20529;-80
2024/02/13 08:32:12;;;;;;;15.63;3.00;;;5.40;99.90;;;;;;5078417;28;20184;-80
2024/02/13 08:34:38;;;;;;;15.17;2.67;;;5.40;99.90;;;;;;5078263;28;20568;-81
2024/02/13 08:37:04;;;;;;;15.60;2.28;;;5.30;99.90;;;;;;5077547;28;20188;-81
2024/02/13 08:39:30;;;;;;;19.42;3.33;;;5.30;99.90;;;;;;5076692;28;20175;-80
2024/02/13 08:41:58;;;;;;;15.10;3.13;;;5.30;99.90;;;;;;5059682;28;20164;-80
2024/02/13 08:44:24;;;;;;;15.60;2.47;;;5.40;99.90;;;;;;5076783;28;20255;-82
2024/02/13 08:46:50;;;;;;;15.00;2.40;;;5.40;99.90;;;;;;5075934;28;20169;-82
2024/02/13 08:49:16;;;;;;;20.07;3.03;;;5.40;99.90;;;;;;5076724;28;20172;-80
2024/02/13 08:51:42;;;;;;;15.48;2.78;;;5.40;99.90;;;;;;5059186;28;20192;-80
2024/02/13 08:54:11;;;;;;;15.47;2.20;;;5.40;99.90;;;;;;5059412;28;20164;-81
2024/02/13 08:56:40;;;;;;;14.40;1.95;;;5.40;99.90;;;;;;5077084;28;20429;-80
2024/02/13 08:59:06;;;;;;;18.40;2.60;;;5.50;99.90;;;;;;5059951;28;20219;-81
2024/02/13 09:01:33;;;;;;;18.77;2.40;;;5.50;99.90;;;;;;5077466;28;20169;-80
2024/02/13 09:04:00;;;;;;;16.73;2.35;;;5.60;99.90;;;;;;5077132;28;20157;-80
2024/02/13 09:06:26;;;;;;;15.10;2.05;;;5.60;99.90;;;;;;5076832;28;20187;-80
2024/02/13 09:08:51;;;;;;;16.27;2.23;;;5.70;99.90;;;;;;5076823;28;20195;-81
2024/02/13 09:11:17;;;;;;;16.30;2.00;;;5.70;99.90;;;;;;5077299;28;20453;-80
2024/02/13 09:13:44;;;;;;;15.93;2.33;;;5.80;99.90;;;;;;5077195;28;20200;-80
2024/02/13 09:16:10;;;;;;;17.10;2.58;;;5.80;99.90;;;;;;5076377;28;20165;-80
2024/02/13 09:18:38;;;;;;;15.23;1.90;;;5.90;99.90;;;;;;5076155;28;20233;-80
2024/02/13 09:21:06;;;;;;;15.75;2.13;;;5.90;99.90;;;;;;5077229;28;20504;-81
2024/02/13 09:23:34;;;;;;;16.30;1.73;;;6.00;99.90;;;;;;5081043;28;20164;-80
2024/02/13 09:25:59;;;;;;;15.15;2.10;;;6.00;99.90;;;;;;5076458;28;20183;-80
2024/02/13 09:28:28;;;;;;;16.70;2.30;;;6.10;99.90;;;;;;5076070;28;20704;-81
2024/02/13 09:30:54;;;;;;;16.55;2.30;;;6.20;99.90;;;;;;5076072;28;20395;-80
2024/02/13 09:33:21;;;;;;;14.33;1.57;;;6.30;99.90;;;;;;5076362;28;20202;-80
2024/02/13 09:35:50;;;;;;;15.02;1.67;;;6.30;99.90;;;;;;5076628;28;20218;-80
2024/02/13 09:38:19;;;;;;;15.00;1.65;;;6.30;99.90;;;;;;5076256;28;20200;-80
2024/02/13 09:40:48;;;;;;;16.13;2.03;;;6.40;99.90;;;;;;5076640;28;20593;-80
2024/02/13 09:43:14;;;;;;;14.75;1.98;;;6.40;99.90;;;;;;5076224;28;20625;-80
2024/02/13 09:45:41;;;;;;;16.15;1.88;;;6.40;99.90;;;;;;5076783;28;20645;-81
2024/02/13 09:48:26;;;;;;;20.83;1.92;;;6.50;99.90;;;;;;5075730;28;20176;-80
2024/02/13 09:50:55;;;;;;;18.38;2.40;;;6.60;99.90;;;;;;5076161;28;20499;-81
2024/02/13 09:53:26;;;;;;;16.95;2.17;;;6.60;99.90;;;;;;5076077;28;20211;-80
2024/02/13 09:55:53;;;;;;;15.63;1.83;;;6.70;99.90;;;;;;5057874;28;20165;-80
2024/02/13 09:58:20;;;;;;;14.98;1.65;;;6.70;99.90;;;;;;5076007;28;20183;-81
2024/02/13 10:00:47;;;;;;;17.08;1.70;;;6.80;99.90;;;;;;5075614;28;20243;-80
2024/02/13 10:03:13;;;;;;;14.57;1.60;;;6.90;99.90;;;;;;5076107;28;20164;-80
2024/02/13 10:05:41;;;;;;;18.75;2.63;;;6.90;96.80;;;;;;5076089;28;20530;-80
2024/02/13 10:08:08;;;;;;;14.30;1.42;;;7.00;92.80;;;;;;5074947;28;20238;-81
2024/02/13 10:10:34;;;;;;;14.32;1.60;;;7.10;89.70;;;;;;5074482;28;20164;-80
2024/02/13 10:13:00;;;;;;;15.98;1.70;;;7.30;80.80;;;;;;5056426;28;20198;-80
2024/02/13 10:15:58;;;;;;;16.52;1.70;;;7.50;87.80;;;;;;5074614;28;20157;-80
2024/02/13 10:18:24;;;;;;;19.42;2.10;;;7.60;68.50;;;;;;5030175;28;20298;-81
2024/02/13 10:20:51;;;;;;;16.15;2.00;;;7.80;71.20;;;;;;5058225;28;20164;-80
2024/02/13 10:23:18;;;;;;;19.88;2.47;;;7.90;65.10;;;;;;5075630;28;20245;-80
2024/02/13 10:25:44;;;;;;;14.50;1.50;;;7.90;45.00;;;;;;5075887;28;20157;-81
2024/02/13 10:28:13;;;;;;;17.05;2.38;;;8.00;49.00;;;;;;5075638;28;20180;-80
2024/02/13 10:30:39;;;;;;;17.67;1.88;;;8.10;49.20;;;;;;5075722;28;20192;-81
2024/02/13 10:33:09;;;;;;;18.10;1.90;;;8.30;36.60;;;;;;5058149;28;20576;-80
2024/02/13 10:35:35;;;;;;;14.93;1.60;;;8.30;38.40;;;;;;5075572;28;20150;-80
2024/02/13 10:38:07;;;;;;;15.00;1.93;;;8.40;26.70;;;;;;5057504;28;20336;-80
2024/02/13 10:40:39;;;;;;;18.38;2.28;;;8.40;22.60;;;;;;5075758;28;20467;-81
2024/02/13 10:43:12;;;;;;;15.68;1.48;;;8.30;19.70;;;;;;5075855;28;20172;-81
2024/02/13 10:45:38;;;;;;;15.35;1.85;;;8.50;31.40;;;;;;5075488;28;20152;-81
2024/02/13 10:48:27;;;;;;;15.00;1.50;;;8.70;25.20;;;;;;5075503;28;20263;-80
2024/02/13 10:50:57;;;;;;;15.13;1.40;;;8.90;7.80;;;;;;5057651;28;20157;-81
2024/02/13 10:53:24;;;;;;;14.80;1.25;;;8.90;7.00;;;;;;5075219;28;20167;-81
2024/02/13 10:55:53;;;;;;;17.40;1.42;;;9.00;9.20;;;;;;5076068;28;20160;-81
2024/02/13 10:58:29;;;;;;;15.15;1.42;;;9.20;5.00;;;;;;5075614;28;20181;-81
2024/02/13 11:00:56;;;;;;;16.27;1.55;;;9.30;1.00;;;;;;5076050;28;20179;-81
2024/02/13 11:03:23;;;;;;;16.77;1.67;;;9.40;1.00;;;;;;5063663;28;20169;-81
2024/02/13 11:05:49;;;;;;;18.30;1.50;;;9.50;1.00;;;;;;5085945;28;20161;-81
2024/02/13 11:08:16;;;;;;;14.60;1.37;;;9.70;1.00;;;;;;5079560;28;20191;-81
2024/02/13 11:10:42;;;;;;;14.70;1.15;;;9.80;1.00;;;;;;5082055;28;20188;-81
2024/02/13 11:13:10;;;;;;;15.40;1.40;;;10.00;1.00;;;;;;5080890;28;20183;-82
2024/02/13 11:15:39;;;;;;;14.60;1.27;;;9.90;1.00;;;;;;5079718;28;20157;-81
2024/02/13 11:18:11;;;;;;;15.95;1.20;;;10.00;1.00;;;;;;5078335;28;20172;-81
2024/02/13 11:20:43;;;;;;;15.00;1.45;;;9.90;1.00;;;;;;5079721;28;20248;-81
2024/02/13 11:23:15;;;;;;;20.73;1.23;;;10.20;1.00;;;;;;5079070;28;20149;-81
2024/02/13 11:25:44;;;;;;;15.88;1.60;;;10.40;1.00;;;;;;5060501;28;20161;-81
2024/02/13 11:28:11;;;;;;;18.05;1.75;;;10.40;1.00;;;;;;5078498;28;20649;-81
2024/02/13 11:30:43;;;;;;;14.18;1.20;;;10.60;1.00;;;;;;5079072;28;20161;-81
2024/02/13 11:33:11;;;;;;;15.30;1.80;;;10.90;1.00;;;;;;5079537;28;20529;-82
2024/02/13 11:35:47;;;;;;;14.27;1.10;;;11.20;1.00;;;;;;5078604;28;20160;-82
2024/02/13 11:38:20;;;;;;;17.65;1.25;;;11.30;1.00;;;;;;5077748;28;20199;-82
2024/02/13 11:40:51;;;;;;;14.60;1.42;;;11.40;1.00;;;;;;5077925;28;20179;-81
2024/02/13 11:43:28;;;;;;;14.10;1.05;;;11.20;1.00;;;;;;5078312;28;20160;-82
2024/02/13 11:46:00;;;;;;;15.18;1.25;;;11.00;1.00;;;;;;5078837;28;20145;-82
2024/02/13 11:48:26;;;;;;;15.20;1.45;;;10.80;1.00;;;;;;5078548;28;20208;-82
2024/02/13 11:50:55;;;;;;;14.70;1.20;;;10.90;1.00;;;;;;5078906;28;20222;-82
2024/02/13 11:53:25;;;;;;;14.75;1.20;;;10.80;1.00;;;;;;5061374;28;20395;-82
2024/02/13 11:55:54;;;;;;;15.32;1.10;;;10.70;1.00;;;;;;5060245;28;20545;-81
2024/02/13 11:58:21;;;;;;;13.48;0.80;;;10.80;1.00;;;;;;5078525;28;20235;-81
2024/02/13 12:01:06;;;;;;;15.85;1.15;;;10.90;1.00;;;;;;5078267;28;20157;-81
2024/02/13 12:03:33;;;;;;;14.10;0.70;;;11.10;1.00;;;;;;5078277;28;20572;-81
2024/02/13 12:06:01;;;;;;;15.27;0.95;;;11.10;1.00;;;;;;5078750;28;20157;-81
2024/02/13 12:08:30;;;;;;;15.10;1.08;;;11.10;1.00;;;;;;5062786;28;20191;-81
2024/02/13 12:11:01;;;;;;;14.88;0.88;;;11.00;1.00;;;;;;5084865;28;20160;-81
2024/02/13 12:13:29;;;;;;;13.63;0.80;;;10.90;1.00;;;;;;5080717;28;20145;-81
2024/02/13 12:15:57;;;;;;;14.80;0.93;;;11.00;1.00;;;;;;5079644;28;20153;-81
2024/02/13 12:18:23;;;;;;;13.85;1.08;;;11.10;1.00;;;;;;5079822;28;20190;-81
2024/02/13 12:20:52;;;;;;;13.50;0.90;;;11.00;1.00;;;;;;5061744;28;20665;-81
2024/02/13 12:23:19;;;;;;;15.20;0.82;;;11.10;1.00;;;;;;5062780;28;20228;-81
2024/02/13 12:25:50;;;;;;;14.18;1.10;;;11.10;1.00;;;;;;5080254;28;20179;-81
2024/02/13 12:28:17;;;;;;;13.98;0.90;;;11.10;1.00;;;;;;5080051;28;20234;-81
2024/02/13 12:30:48;;;;;;;14.50;0.90;;;11.10;1.00;;;;;;5079058;28;20156;-82
2024/02/13 12:33:22;;;;;;;13.98;0.90;;;11.30;1.00;;;;;;5060581;28;20232;-82
2024/02/13 12:36:13;;;;;;;13.57;1.00;;;11.40;1.00;;;;;;5061014;28;20521;-81
2024/02/13 12:38:38;;;;;;;13.90;0.93;;;11.60;1.00;;;;;;5078313;28;20197;-82
2024/02/13 12:41:05;;;;;;;13.73;1.03;;;11.60;1.00;;;;;;5078818;28;20258;-81
2024/02/13 12:43:31;;;;;;;13.52;0.90;;;11.50;1.00;;;;;;5077723;28;20173;-81
2024/02/13 12:46:03;;;;;;;16.38;0.95;;;11.30;1.00;;;;;;5078450;28;20172;-81
2024/02/13 12:48:31;;;;;;;13.38;0.80;;;11.20;1.00;;;;;;5078846;28;20195;-81
2024/02/13 12:51:20;;;;;;;13.35;0.70;;;11.10;1.00;;;;;;5080292;28;20657;-82
2024/02/13 12:53:47;;;;;;;13.80;1.05;;;10.90;1.00;;;;;;5078805;28;20202;-81